Time;durP1;ratioP1;P1;durP2;ratioP2;P2;SDS_P1;SDS_P2;PMS_P1;PMS_P2;Temp;Humidity;BMP_temperature;BMP_pressure;BME280_temperature;BME280_humidity;BME280_pressure;Samples;Min_cycle;Max_cycle;Signal;HPM_P1;HPM_P2
2021/05/02 00:01:17;;;;;;;22.50;21.40;;;21.80;99.90;;;;;;5072484;28;20037;-55
2021/05/02 00:03:44;;;;;;;21.15;20.05;;;21.90;99.90;;;;;;5072572;28;20070;-58
2021/05/02 00:06:12;;;;;;;21.63;20.42;;;21.90;99.90;;;;;;5072585;28;20020;-57
2021/05/02 00:08:40;;;;;;;20.00;19.00;;;21.90;99.90;;;;;;5072576;28;20029;-56
2021/05/02 00:11:10;;;;;;;19.40;18.50;;;21.70;99.90;;;;;;5072346;28;20417;-56
2021/05/02 00:13:39;;;;;;;18.02;17.13;;;21.70;99.90;;;;;;5072500;28;20020;-55
2021/05/02 00:16:08;;;;;;;18.40;17.40;;;21.90;99.90;;;;;;5072415;28;20048;-57
2021/05/02 00:18:35;;;;;;;17.20;16.30;;;22.00;99.90;;;;;;5072617;28;20031;-57
2021/05/02 00:21:07;;;;;;;16.85;16.10;;;22.00;99.90;;;;;;5072232;28;20032;-57
2021/05/02 00:23:38;;;;;;;16.77;15.98;;;22.30;99.90;;;;;;5071180;28;20032;-59
2021/05/02 00:26:06;;;;;;;16.02;15.32;;;22.50;99.90;;;;;;5072570;28;20031;-58
2021/05/02 00:28:35;;;;;;;14.10;13.40;;;22.60;99.90;;;;;;5075638;28;20550;-59
2021/05/02 00:31:09;;;;;;;13.27;12.70;;;22.60;99.90;;;;;;5074780;28;20035;-58
2021/05/02 00:33:37;;;;;;;13.02;12.10;;;22.70;99.90;;;;;;5076068;28;20070;-59
2021/05/02 00:36:05;;;;;;;12.43;11.60;;;22.80;99.90;;;;;;5076279;28;20419;-57
2021/05/02 00:38:42;;;;;;;11.90;11.20;;;22.80;99.90;;;;;;5076017;28;20389;-57
2021/05/02 00:41:17;;;;;;;11.07;10.48;;;22.70;99.90;;;;;;5076014;28;20507;-58
2021/05/02 00:43:57;;;;;;;10.88;10.27;;;22.80;99.90;;;;;;5075840;28;20037;-57
2021/05/02 00:46:39;;;;;;;10.90;10.30;;;23.10;99.90;;;;;;5076046;28;20024;-57
2021/05/02 00:49:17;;;;;;;10.57;9.70;;;23.30;99.90;;;;;;5075917;28;20028;-59
2021/05/02 00:51:55;;;;;;;10.07;9.48;;;23.30;99.90;;;;;;5075764;28;20029;-57
2021/05/02 00:54:36;;;;;;;10.50;9.65;;;23.10;99.90;;;;;;5075657;28;20032;-58
2021/05/02 00:57:15;;;;;;;9.40;8.60;;;23.30;99.90;;;;;;5075711;28;20024;-57
2021/05/02 00:59:44;;;;;;;8.30;7.70;;;23.00;99.90;;;;;;5075611;28;20477;-57
2021/05/02 01:02:14;;;;;;;8.10;7.30;;;23.10;99.90;;;;;;5075525;28;20112;-59
2021/05/02 01:04:46;;;;;;;6.37;6.17;;;23.20;99.90;;;;;;5075477;28;20020;-57
2021/05/02 01:07:22;;;;;;;5.50;5.20;;;23.70;99.90;;;;;;5075426;28;20256;-57
2021/05/02 01:09:49;;;;;;;6.22;5.75;;;24.00;99.90;;;;;;5075380;28;20481;-58
2021/05/02 01:12:20;;;;;;;6.03;5.50;;;24.20;99.90;;;;;;5075417;28;20024;-58
2021/05/02 01:14:55;;;;;;;5.82;5.32;;;24.20;99.90;;;;;;5075419;28;20423;-58
2021/05/02 01:17:24;;;;;;;4.90;4.60;;;24.20;99.90;;;;;;5075345;28;20027;-58
2021/05/02 01:19:54;;;;;;;5.63;5.20;;;24.00;99.90;;;;;;5074037;28;20024;-58
2021/05/02 01:22:22;;;;;;;4.80;4.50;;;24.10;99.90;;;;;;5075159;28;20032;-58
2021/05/02 01:24:53;;;;;;;4.70;4.40;;;23.90;99.90;;;;;;5075224;28;20020;-58
2021/05/02 01:27:33;;;;;;;4.57;4.18;;;23.60;99.90;;;;;;5075163;28;20020;-58
2021/05/02 01:30:03;;;;;;;4.13;3.60;;;23.50;99.90;;;;;;5075167;28;20103;-58
2021/05/02 01:32:31;;;;;;;4.28;3.92;;;23.40;99.90;;;;;;5075121;28;20024;-58
2021/05/02 01:34:59;;;;;;;3.80;3.55;;;23.60;99.90;;;;;;5074974;28;20033;-58
2021/05/02 01:37:27;;;;;;;4.22;3.92;;;23.40;99.90;;;;;;5074527;28;20048;-59
2021/05/02 01:39:54;;;;;;;4.20;3.90;;;23.70;99.90;;;;;;5074986;28;20099;-58
2021/05/02 01:42:21;;;;;;;4.25;3.92;;;23.60;99.90;;;;;;5074707;28;20036;-58
2021/05/02 01:44:49;;;;;;;4.28;4.00;;;23.70;99.90;;;;;;5074761;28;20081;-58
2021/05/02 01:47:20;;;;;;;4.82;4.43;;;23.70;99.90;;;;;;5074856;28;20024;-58
2021/05/02 01:49:50;;;;;;;3.80;3.60;;;23.90;99.90;;;;;;5074978;28;20553;-56
2021/05/02 01:52:20;;;;;;;3.60;3.40;;;23.90;99.90;;;;;;5074726;28;20381;-56
2021/05/02 01:54:48;;;;;;;3.50;3.20;;;23.70;99.90;;;;;;5074671;28;20052;-58
2021/05/02 01:57:24;;;;;;;3.60;3.00;;;23.60;99.90;;;;;;5075026;28;20048;-58
2021/05/02 01:59:56;;;;;;;3.58;3.30;;;23.50;99.90;;;;;;5074672;28;20016;-58
2021/05/02 02:02:25;;;;;;;4.13;3.25;;;23.50;99.90;;;;;;5074597;28;20384;-56
2021/05/02 02:04:56;;;;;;;3.53;3.00;;;23.80;99.90;;;;;;5074392;28;20468;-58
2021/05/02 02:07:23;;;;;;;;;;;23.80;99.90;;;;;;5074878;28;20092;-58
2021/05/02 02:09:52;;;;;;;4.28;3.40;;;24.20;99.90;;;;;;5074388;28;20384;-58
2021/05/02 02:12:20;;;;;;;3.72;3.40;;;24.50;99.90;;;;;;5074305;28;20032;-59
2021/05/02 02:14:53;;;;;;;3.70;3.45;;;24.50;99.90;;;;;;5074177;28;20124;-58
2021/05/02 02:17:21;;;;;;;4.00;3.60;;;24.20;99.90;;;;;;5074132;28;20105;-58
2021/05/02 02:19:48;;;;;;;3.88;3.58;;;24.00;99.90;;;;;;5074124;28;20020;-57
2021/05/02 02:22:17;;;;;;;4.57;4.13;;;24.10;99.90;;;;;;5073888;28;20075;-58
2021/05/02 02:24:46;;;;;;;4.55;3.80;;;23.60;99.90;;;;;;5072967;28;20028;-57
2021/05/02 02:27:14;;;;;;;4.13;3.90;;;23.70;99.90;;;;;;5074166;28;20416;-58
2021/05/02 02:29:47;;;;;;;4.95;4.45;;;23.60;99.90;;;;;;5073958;28;20026;-57
2021/05/02 02:32:18;;;;;;;4.60;4.20;;;23.40;99.90;;;;;;5073892;28;20442;-57
2021/05/02 02:34:47;;;;;;;5.78;4.55;;;23.40;99.90;;;;;;5073919;28;20440;-54
2021/05/02 02:37:20;;;;;;;5.00;4.60;;;23.50;99.90;;;;;;5073806;28;20407;-57
2021/05/02 02:39:51;;;;;;;4.97;4.50;;;23.60;99.90;;;;;;5073848;28;20432;-58
2021/05/02 02:42:20;;;;;;;5.53;4.72;;;23.90;99.90;;;;;;5073599;28;20060;-58
2021/05/02 02:45:08;;;;;;;4.85;4.43;;;23.80;99.90;;;;;;5073699;28;20027;-58
2021/05/02 02:47:58;;;;;;;4.70;4.05;;;23.80;99.90;;;;;;5073625;28;20085;-57
2021/05/02 02:50:28;;;;;;;6.13;5.50;;;23.60;99.90;;;;;;5072773;28;20031;-57
2021/05/02 02:53:01;;;;;;;6.65;5.22;;;23.60;99.90;;;;;;5073639;28;20033;-58
2021/05/02 02:55:28;;;;;;;5.75;4.80;;;23.70;99.90;;;;;;5073456;28;20078;-58
2021/05/02 02:58:05;;;;;;;5.72;5.13;;;23.80;99.90;;;;;;5073449;28;20029;-58
2021/05/02 03:00:34;;;;;;;5.65;5.00;;;23.90;99.90;;;;;;5073534;28;20021;-59
2021/05/02 03:03:15;;;;;;;5.50;5.10;;;24.00;99.90;;;;;;5073161;28;20074;-60
2021/05/02 03:05:43;;;;;;;6.47;5.68;;;24.00;99.90;;;;;;5072438;28;20030;-60
2021/05/02 03:08:11;;;;;;;7.72;5.28;;;24.20;99.90;;;;;;5073712;28;20481;-60
2021/05/02 03:10:43;;;;;;;5.20;4.90;;;24.30;99.90;;;;;;5072744;28;20016;-60
2021/05/02 03:13:12;;;;;;;6.15;4.60;;;24.20;99.90;;;;;;5073264;28;20534;-60
2021/05/02 03:15:40;;;;;;;4.55;4.25;;;24.20;99.90;;;;;;5072852;28;20112;-59
2021/05/02 03:18:18;;;;;;;6.00;4.90;;;24.40;99.90;;;;;;5073035;28;20032;-60
2021/05/02 03:20:50;;;;;;;7.35;4.70;;;24.40;99.90;;;;;;5071930;28;20024;-60
2021/05/02 03:23:28;;;;;;;8.13;4.70;;;24.30;99.90;;;;;;5072956;28;20020;-60
2021/05/02 03:26:03;;;;;;;5.45;5.00;;;24.20;99.90;;;;;;5073013;28;20473;-59
2021/05/02 03:28:44;;;;;;;4.95;4.50;;;23.90;99.90;;;;;;5073123;28;20020;-58
2021/05/02 03:31:14;;;;;;;5.10;4.60;;;23.70;99.90;;;;;;5073056;28;20012;-60
2021/05/02 03:33:47;;;;;;;6.10;5.50;;;23.30;99.90;;;;;;5073142;28;20027;-59
2021/05/02 03:36:38;;;;;;;5.65;5.25;;;23.30;99.90;;;;;;5073144;28;20020;-60
2021/05/02 03:39:06;;;;;;;6.20;5.70;;;23.20;99.90;;;;;;5073023;28;20031;-60
2021/05/02 03:41:35;;;;;;;5.45;5.05;;;23.00;99.90;;;;;;5072740;28;20086;-60
2021/05/02 03:44:04;;;;;;;5.95;5.45;;;22.80;99.90;;;;;;5072936;28;20020;-59
2021/05/02 03:46:33;;;;;;;5.60;5.30;;;22.80;99.90;;;;;;5072988;28;20013;-58
2021/05/02 03:49:05;;;;;;;6.47;5.60;;;22.50;99.90;;;;;;5072858;28;20501;-58
2021/05/02 03:51:37;;;;;;;6.00;5.60;;;22.30;99.90;;;;;;5072951;28;20425;-60
2021/05/02 03:54:05;;;;;;;6.80;6.22;;;22.10;99.90;;;;;;5072728;28;20506;-59
2021/05/02 03:56:46;;;;;;;6.47;5.88;;;21.90;99.90;;;;;;5072770;28;20370;-59
2021/05/02 03:59:14;;;;;;;;;;;22.10;99.90;;;;;;5073397;28;20024;-59
2021/05/02 04:01:52;;;;;;;6.10;5.57;;;22.20;99.90;;;;;;5074938;28;20025;-60
2021/05/02 04:04:24;;;;;;;5.03;4.72;;;22.40;99.90;;;;;;5076785;28;20031;-58
2021/05/02 04:06:56;;;;;;;5.30;4.80;;;22.50;99.90;;;;;;5076896;28;20021;-58
2021/05/02 04:09:24;;;;;;;5.78;5.28;;;22.80;99.90;;;;;;5076756;28;20024;-59
2021/05/02 04:11:51;;;;;;;5.45;5.05;;;23.10;99.90;;;;;;5076677;28;20103;-58
2021/05/02 04:14:19;;;;;;;5.05;4.53;;;22.90;99.90;;;;;;5076681;28;20064;-59
2021/05/02 04:17:07;;;;;;;5.35;4.90;;;22.80;99.90;;;;;;5076597;28;20044;-57
2021/05/02 04:19:37;;;;;;;6.45;5.95;;;22.60;99.90;;;;;;5076561;28;20060;-58
2021/05/02 04:22:05;;;;;;;6.15;5.13;;;22.50;99.90;;;;;;5076365;28;20028;-58
2021/05/02 04:24:33;;;;;;;5.25;4.80;;;22.40;99.90;;;;;;5076390;28;20078;-58
2021/05/02 04:27:01;;;;;;;6.95;4.95;;;22.40;99.90;;;;;;5076312;28;20103;-59
2021/05/02 04:29:30;;;;;;;5.78;5.28;;;22.30;99.90;;;;;;5076275;28;20059;-57
2021/05/02 04:31:58;;;;;;;6.18;5.68;;;22.30;99.90;;;;;;5076256;28;20032;-57
2021/05/02 04:34:26;;;;;;;5.68;5.18;;;22.20;99.90;;;;;;5076223;28;20086;-59
2021/05/02 04:36:56;;;;;;;7.43;5.72;;;22.10;99.90;;;;;;5076022;28;20078;-58
2021/05/02 04:39:24;;;;;;;6.23;5.50;;;22.20;99.90;;;;;;5075768;28;20020;-57
2021/05/02 04:41:52;;;;;;;5.35;4.97;;;22.10;99.90;;;;;;5075679;28;20477;-58
2021/05/02 04:44:20;;;;;;;6.70;6.10;;;22.00;99.90;;;;;;5075986;28;20057;-58
2021/05/02 04:46:48;;;;;;;6.32;5.72;;;22.10;99.90;;;;;;5075944;28;20021;-58
2021/05/02 04:49:15;;;;;;;6.63;6.30;;;22.00;99.90;;;;;;5075964;28;20017;-58
2021/05/02 04:51:43;;;;;;;7.18;6.57;;;22.10;99.90;;;;;;5075929;28;20036;-58
2021/05/02 04:54:11;;;;;;;8.23;7.57;;;22.00;99.90;;;;;;5075731;28;20060;-58
2021/05/02 04:56:39;;;;;;;7.80;7.50;;;22.20;99.90;;;;;;5075750;28;20028;-60
2021/05/02 04:59:07;;;;;;;8.80;8.10;;;22.30;99.90;;;;;;5075618;28;20052;-57
2021/05/02 05:01:36;;;;;;;8.30;7.70;;;22.40;99.90;;;;;;5075577;28;20046;-58
2021/05/02 05:04:05;;;;;;;8.65;8.00;;;22.30;99.90;;;;;;5075599;28;20025;-59
2021/05/02 05:06:34;;;;;;;9.20;8.30;;;22.10;99.90;;;;;;5075912;28;20158;-58
2021/05/02 05:09:01;;;;;;;8.25;7.85;;;22.20;99.90;;;;;;5075563;28;20051;-59
2021/05/02 05:11:29;;;;;;;8.25;7.75;;;22.30;99.90;;;;;;5075600;28;20021;-57
2021/05/02 05:13:56;;;;;;;8.63;8.00;;;22.00;99.90;;;;;;5074912;28;20384;-57
2021/05/02 05:16:23;;;;;;;8.52;7.93;;;21.80;99.90;;;;;;5075347;28;20104;-58
2021/05/02 05:18:51;;;;;;;8.82;8.30;;;21.60;99.90;;;;;;5075224;28;20036;-58
2021/05/02 05:21:18;;;;;;;9.70;9.00;;;21.70;99.90;;;;;;5073895;28;20396;-58
2021/05/02 05:23:45;;;;;;;9.38;8.82;;;21.70;99.90;;;;;;5075150;28;20103;-58
2021/05/02 05:26:13;;;;;;;10.20;9.60;;;21.90;99.90;;;;;;5075295;28;20477;-57
2021/05/02 05:28:40;;;;;;;10.20;9.32;;;21.90;99.90;;;;;;5075208;28;20380;-58
2021/05/02 05:31:07;;;;;;;10.15;9.48;;;21.90;99.90;;;;;;5075292;28;20534;-58
2021/05/02 05:33:35;;;;;;;10.15;9.45;;;21.80;99.90;;;;;;5075086;28;20104;-58
2021/05/02 05:36:02;;;;;;;11.13;10.43;;;21.70;99.90;;;;;;5075201;28;20380;-58
2021/05/02 05:38:29;;;;;;;11.63;10.80;;;21.80;99.90;;;;;;5075023;28;20020;-58
2021/05/02 05:40:57;;;;;;;12.38;11.57;;;21.70;99.90;;;;;;5074919;28;20025;-57
2021/05/02 05:43:24;;;;;;;12.05;11.35;;;21.60;99.90;;;;;;5074717;28;20037;-57
2021/05/02 05:45:54;;;;;;;12.32;11.52;;;21.60;99.90;;;;;;5074927;28;20381;-60
2021/05/02 05:48:21;;;;;;;12.63;11.90;;;21.60;99.90;;;;;;5074995;28;20109;-58
2021/05/02 05:50:49;;;;;;;12.70;12.02;;;21.70;99.90;;;;;;5074686;28;20047;-58
2021/05/02 05:53:20;;;;;;;12.48;11.68;;;21.60;99.90;;;;;;5074786;28;20108;-59
2021/05/02 05:55:47;;;;;;;12.90;12.00;;;21.30;99.90;;;;;;5074659;28;20108;-58
2021/05/02 05:58:14;;;;;;;14.77;13.52;;;21.30;99.90;;;;;;5074556;28;20392;-57
2021/05/02 06:00:42;;;;;;;13.57;12.73;;;21.30;99.90;;;;;;5074558;28;20024;-59
2021/05/02 06:03:09;;;;;;;12.20;11.50;;;21.40;99.90;;;;;;5074361;28;20025;-58
2021/05/02 06:05:36;;;;;;;12.93;12.02;;;21.40;99.90;;;;;;5074643;28;20385;-58
2021/05/02 06:08:04;;;;;;;13.27;12.50;;;21.30;99.90;;;;;;5074497;28;20483;-59
2021/05/02 06:10:31;;;;;;;13.27;12.45;;;21.30;99.90;;;;;;5074334;28;20150;-58
2021/05/02 06:12:59;;;;;;;13.43;12.60;;;21.00;99.90;;;;;;5074374;28;20055;-58
2021/05/02 06:15:26;;;;;;;13.95;13.05;;;21.00;99.90;;;;;;5074229;28;20510;-58
2021/05/02 06:17:53;;;;;;;14.52;13.70;;;20.90;99.90;;;;;;5074153;28;20020;-58
2021/05/02 06:20:21;;;;;;;15.30;14.32;;;20.90;99.90;;;;;;5074146;28;20393;-58
2021/05/02 06:22:50;;;;;;;15.63;14.57;;;20.80;99.90;;;;;;5074138;28;20031;-57
2021/05/02 06:25:18;;;;;;;16.98;15.90;;;20.80;99.90;;;;;;5073937;28;20020;-58
2021/05/02 06:27:46;;;;;;;16.58;15.57;;;20.60;99.90;;;;;;5073888;28;20105;-59
2021/05/02 06:30:14;;;;;;;18.27;17.10;;;20.50;99.90;;;;;;5073917;28;20055;-59
2021/05/02 06:32:41;;;;;;;19.10;18.10;;;20.30;99.90;;;;;;5073852;28;20032;-57
2021/05/02 06:35:09;;;;;;;20.63;19.45;;;20.30;99.90;;;;;;5073650;28;20029;-58
2021/05/02 06:37:37;;;;;;;22.98;21.42;;;20.20;99.90;;;;;;5073470;28;20028;-58
2021/05/02 06:40:04;;;;;;;25.45;23.90;;;20.20;99.90;;;;;;5073370;28;20385;-61
2021/05/02 06:42:32;;;;;;;25.80;24.13;;;20.10;99.90;;;;;;5073418;28;20042;-61
2021/05/02 06:44:59;;;;;;;26.92;25.33;;;20.10;99.90;;;;;;5073463;28;20027;-62
2021/05/02 06:47:27;;;;;;;28.42;26.80;;;20.10;99.90;;;;;;5073105;28;20020;-62
2021/05/02 06:49:54;;;;;;;31.27;29.27;;;20.00;99.90;;;;;;5072957;28;20055;-62
2021/05/02 06:52:22;;;;;;;31.10;29.15;;;19.90;99.90;;;;;;5073356;28;20052;-63
2021/05/02 06:54:49;;;;;;;30.63;28.80;;;19.90;99.90;;;;;;5073243;28;20052;-62
2021/05/02 06:57:17;;;;;;;30.30;28.40;;;19.90;99.90;;;;;;5073308;28;20032;-62
2021/05/02 06:59:44;;;;;;;30.10;28.10;;;19.80;99.90;;;;;;5073394;28;20025;-62
2021/05/02 07:02:11;;;;;;;32.72;30.55;;;19.80;99.90;;;;;;5073113;28;20040;-62
2021/05/02 07:04:39;;;;;;;33.38;31.20;;;19.70;99.90;;;;;;5072809;28;20028;-62
2021/05/02 07:07:06;;;;;;;33.08;30.83;;;19.80;99.90;;;;;;5072903;28;20028;-62
2021/05/02 07:09:34;;;;;;;32.40;29.88;;;19.70;99.90;;;;;;5073039;28;20023;-62
2021/05/02 07:12:02;;;;;;;31.95;29.55;;;19.60;99.90;;;;;;5072910;28;20024;-62
2021/05/02 07:14:29;;;;;;;31.92;30.00;;;19.50;99.90;;;;;;5071759;28;20020;-62
2021/05/02 07:16:56;;;;;;;33.58;30.77;;;19.50;99.90;;;;;;5073132;28;20107;-62
2021/05/02 07:19:24;;;;;;;31.65;29.45;;;19.40;99.90;;;;;;5073096;28;20030;-62
2021/05/02 07:22:04;;;;;;;31.65;29.33;;;19.40;99.90;;;;;;5071605;28;20082;-64
2021/05/02 07:24:31;;;;;;;32.03;29.63;;;19.40;99.90;;;;;;5073049;28;20035;-63
2021/05/02 07:26:59;;;;;;;33.72;31.20;;;19.30;99.90;;;;;;5072996;28;20032;-63
2021/05/02 07:29:26;;;;;;;31.88;29.52;;;19.30;99.90;;;;;;5072963;28;20017;-62
2021/05/02 07:31:54;;;;;;;31.80;29.50;;;19.30;99.90;;;;;;5072846;28;20480;-62
2021/05/02 07:34:23;;;;;;;32.22;29.88;;;19.20;99.90;;;;;;5072716;28;20020;-62
2021/05/02 07:36:51;;;;;;;32.58;30.35;;;19.20;99.90;;;;;;5072552;28;20103;-61
2021/05/02 07:39:20;;;;;;;31.67;29.50;;;19.10;99.90;;;;;;5072806;28;20409;-61
2021/05/02 07:41:47;;;;;;;30.75;28.40;;;19.10;99.90;;;;;;5071338;28;20051;-61
2021/05/02 07:44:15;;;;;;;33.05;30.35;;;19.10;99.90;;;;;;5072660;28;20048;-61
2021/05/02 07:46:42;;;;;;;33.03;30.48;;;19.10;99.90;;;;;;5072948;28;20065;-63
2021/05/02 07:49:10;;;;;;;33.40;31.20;;;19.10;99.90;;;;;;5072873;28;20028;-61
2021/05/02 07:51:37;;;;;;;32.97;30.55;;;19.10;99.90;;;;;;5072859;28;20032;-60
2021/05/02 07:54:05;;;;;;;34.70;32.00;;;19.10;99.90;;;;;;5072785;28;20020;-60
2021/05/02 07:56:33;;;;;;;34.42;32.03;;;19.10;99.90;;;;;;5072778;28;20024;-61
2021/05/02 07:59:00;;;;;;;35.88;33.60;;;19.10;99.90;;;;;;5072753;28;20027;-62
2021/05/02 08:01:27;;;;;;;35.08;32.28;;;19.00;99.90;;;;;;5072599;28;20032;-62
2021/05/02 08:03:54;;;;;;;35.03;32.55;;;18.90;99.90;;;;;;5072652;28;20384;-61
2021/05/02 08:06:22;;;;;;;36.78;34.28;;;18.90;99.90;;;;;;5072907;28;20021;-62
2021/05/02 08:08:50;;;;;;;37.50;34.67;;;18.90;99.90;;;;;;5072528;28;20035;-61
2021/05/02 08:11:18;;;;;;;38.58;35.50;;;18.90;99.90;;;;;;5072700;28;20021;-61
2021/05/02 08:13:45;;;;;;;39.63;36.53;;;18.90;99.90;;;;;;5072597;28;20028;-62
2021/05/02 08:16:13;;;;;;;51.63;41.35;;;18.90;99.90;;;;;;5072625;28;20334;-62
2021/05/02 08:18:40;;;;;;;39.45;36.35;;;19.00;99.90;;;;;;5072610;28;20066;-63
2021/05/02 08:21:10;;;;;;;40.38;37.15;;;19.10;99.90;;;;;;5072703;28;20103;-61
2021/05/02 08:23:38;;;;;;;38.88;35.75;;;19.20;99.90;;;;;;5071407;28;20071;-61
2021/05/02 08:26:06;;;;;;;38.10;35.28;;;19.20;99.90;;;;;;5072659;28;20029;-61
2021/05/02 08:28:33;;;;;;;38.90;35.80;;;19.30;99.90;;;;;;5072453;28;20366;-62
2021/05/02 08:31:01;;;;;;;39.30;36.10;;;19.30;99.90;;;;;;5072380;28;20017;-62
2021/05/02 08:33:29;;;;;;;37.85;35.15;;;19.30;99.90;;;;;;5071426;28;20024;-65
2021/05/02 08:35:56;;;;;;;35.38;33.10;;;19.00;99.90;;;;;;5072424;28;20105;-63
2021/05/02 08:38:23;;;;;;;36.65;33.50;;;18.90;99.90;;;;;;5072366;28;20024;-62
2021/05/02 08:40:51;;;;;;;36.22;33.33;;;18.80;99.90;;;;;;5072304;28;20021;-62
2021/05/02 08:43:19;;;;;;;39.53;36.25;;;18.70;99.90;;;;;;5072232;28;20132;-61
2021/05/02 08:45:46;;;;;;;41.88;37.40;;;18.70;99.90;;;;;;5071220;28;20465;-64
2021/05/02 08:48:14;;;;;;;39.85;36.75;;;18.70;99.90;;;;;;5073653;28;20565;-63
2021/05/02 08:50:41;;;;;;;40.25;36.85;;;18.70;99.90;;;;;;5076044;28;20098;-64
2021/05/02 08:53:08;;;;;;;40.03;37.03;;;18.60;99.90;;;;;;5075954;28;20027;-63
2021/05/02 08:55:36;;;;;;;39.42;36.58;;;18.60;99.90;;;;;;5075888;28;20024;-64
2021/05/02 08:58:04;;;;;;;39.47;36.17;;;18.50;99.90;;;;;;5075979;28;20035;-63
2021/05/02 09:00:33;;;;;;;41.17;38.30;;;18.50;99.90;;;;;;5075955;28;20385;-62
2021/05/02 09:03:00;;;;;;;42.40;39.15;;;18.40;99.90;;;;;;5075602;28;20126;-62
2021/05/02 09:05:28;;;;;;;41.40;38.13;;;18.40;99.90;;;;;;5075941;28;20016;-63
2021/05/02 09:07:55;;;;;;;43.53;40.33;;;18.30;99.90;;;;;;5075910;28;20020;-62
2021/05/02 09:10:35;;;;;;;42.50;39.38;;;18.30;99.90;;;;;;5075546;28;20021;-62
2021/05/02 09:13:06;;;;;;;44.22;41.25;;;18.40;99.90;;;;;;5075499;28;20426;-61
2021/05/02 09:15:33;;;;;;;;;;;18.30;99.90;;;;;;5075950;28;20020;-62
2021/05/02 09:18:18;;;;;;;45.20;41.95;;;18.20;99.90;;;;;;5075501;28;19996;-63
2021/05/02 09:20:54;;;;;;;44.35;40.80;;;18.30;99.90;;;;;;5075616;28;20453;-62
2021/05/02 09:23:21;;;;;;;45.58;42.25;;;18.20;99.90;;;;;;5073979;28;20107;-63
2021/05/02 09:25:55;;;;;;;42.22;38.83;;;18.20;99.90;;;;;;5075370;28;20536;-61
2021/05/02 09:28:43;;;;;;;41.25;37.97;;;18.10;99.90;;;;;;5075229;28;20024;-62
2021/05/02 09:31:15;;;;;;;41.13;38.10;;;18.10;99.90;;;;;;5075219;28;20017;-62
2021/05/02 09:33:42;;;;;;;41.15;38.33;;;18.10;99.90;;;;;;5075293;28;20020;-64
2021/05/02 09:36:17;;;;;;;40.05;37.35;;;18.10;99.90;;;;;;5075087;28;20025;-63
2021/05/02 09:38:45;;;;;;;40.22;37.13;;;18.00;99.90;;;;;;5073960;28;20060;-63
2021/05/02 09:41:15;;;;;;;40.47;37.65;;;18.00;99.90;;;;;;5074888;28;20016;-63
2021/05/02 09:43:44;;;;;;;41.55;38.55;;;17.90;99.90;;;;;;5074704;28;20094;-64
2021/05/02 09:46:33;;;;;;;41.75;39.05;;;17.90;99.90;;;;;;5073633;28;20024;-64
2021/05/02 09:49:16;;;;;;;38.38;35.67;;;17.90;99.90;;;;;;5075009;28;20020;-65
2021/05/02 09:51:54;;;;;;;39.33;36.53;;;17.90;99.90;;;;;;5074935;28;20023;-64
2021/05/02 09:54:27;;;;;;;42.10;38.97;;;17.80;99.90;;;;;;5074914;28;20025;-64
2021/05/02 09:56:58;;;;;;;39.45;36.53;;;17.80;99.90;;;;;;5075071;28;20020;-64
2021/05/02 09:59:34;;;;;;;36.70;34.05;;;17.80;99.90;;;;;;5073236;28;20039;-64
2021/05/02 10:02:13;;;;;;;36.38;33.72;;;17.70;99.90;;;;;;5075122;28;20035;-65
2021/05/02 10:04:50;;;;;;;36.35;33.60;;;17.70;99.90;;;;;;5074553;28;20019;-64
2021/05/02 10:07:20;;;;;;;37.05;34.38;;;17.70;99.90;;;;;;5074608;28;20024;-64
2021/05/02 10:09:48;;;;;;;38.28;35.47;;;17.70;99.90;;;;;;5073130;28;20024;-65
2021/05/02 10:12:16;;;;;;;38.70;36.15;;;17.70;99.90;;;;;;5074410;28;20029;-64
2021/05/02 10:14:48;;;;;;;37.60;35.08;;;17.70;99.90;;;;;;5074482;28;20082;-64
2021/05/02 10:17:16;;;;;;;36.20;33.58;;;17.60;99.90;;;;;;5074471;28;20537;-63
2021/05/02 10:19:44;;;;;;;35.80;33.40;;;17.60;99.90;;;;;;5074456;28;20028;-63
2021/05/02 10:22:12;;;;;;;36.00;33.50;;;17.60;99.90;;;;;;5074132;28;20059;-65
2021/05/02 10:24:40;;;;;;;36.67;34.17;;;17.60;99.90;;;;;;5074197;28;20107;-63
2021/05/02 10:27:10;;;;;;;36.95;34.35;;;17.60;99.90;;;;;;5074237;28;20485;-63
2021/05/02 10:29:40;;;;;;;36.88;34.33;;;17.60;99.90;;;;;;5074076;28;20051;-64
2021/05/02 10:32:13;;;;;;;39.17;36.47;;;17.60;99.90;;;;;;5074209;28;20029;-64
2021/05/02 10:34:48;;;;;;;38.85;36.35;;;17.60;99.90;;;;;;5074005;28;20052;-63
2021/05/02 10:37:27;;;;;;;38.55;36.08;;;17.60;99.90;;;;;;5072658;28;20031;-64
2021/05/02 10:39:57;;;;;;;39.13;36.53;;;17.60;99.90;;;;;;5073992;28;20107;-63
2021/05/02 10:42:52;;;;;;;40.17;37.55;;;17.60;99.90;;;;;;5073517;28;20520;-64
2021/05/02 10:45:33;;;;;;;39.78;37.08;;;17.50;99.90;;;;;;5073775;28;20078;-64
2021/05/02 10:48:06;;;;;;;39.50;37.00;;;17.50;99.90;;;;;;5073750;28;20013;-63
2021/05/02 10:50:35;;;;;;;40.78;38.15;;;17.40;99.90;;;;;;5073624;28;20099;-64
2021/05/02 10:53:05;;;;;;;41.40;38.65;;;17.40;99.90;;;;;;5074004;28;20044;-64
2021/05/02 10:56:04;;;;;;;40.50;37.80;;;17.50;99.90;;;;;;5073921;28;20060;-64
2021/05/02 10:58:37;;;;;;;40.83;38.00;;;17.40;99.90;;;;;;5073570;28;20401;-64
2021/05/02 11:01:08;;;;;;;41.63;39.05;;;17.40;99.90;;;;;;5073480;28;20024;-63
2021/05/02 11:03:38;;;;;;;39.65;37.25;;;17.40;99.90;;;;;;5073463;28;20099;-64
2021/05/02 11:06:08;;;;;;;40.35;37.85;;;17.40;99.90;;;;;;5073420;28;20020;-65
2021/05/02 11:08:49;;;;;;;39.47;36.85;;;17.30;99.90;;;;;;5073481;28;20412;-64
2021/05/02 11:11:31;;;;;;;41.55;38.55;;;17.30;99.90;;;;;;5072794;28;20020;-64
2021/05/02 11:16:36;;;;;;;39.67;37.13;;;17.20;99.90;;;;;;5073443;28;20020;-63
2021/05/02 11:19:05;;;;;;;41.90;39.05;;;17.20;99.90;;;;;;5073285;28;20023;-64
2021/05/02 11:24:20;;;;;;;42.08;39.45;;;17.10;99.90;;;;;;5073465;28;20059;-64
2021/05/02 11:29:51;;;;;;;43.28;40.45;;;17.10;99.90;;;;;;5073239;28;20376;-64
2021/05/02 11:32:48;;;;;;;44.22;41.50;;;17.00;99.90;;;;;;5071866;28;20115;-63
2021/05/02 11:35:18;;;;;;;43.22;40.53;;;17.00;99.90;;;;;;5072377;28;20032;-63
2021/05/02 11:38:05;;;;;;;44.80;42.00;;;17.00;99.90;;;;;;5073428;28;20034;-66
2021/05/02 11:40:35;;;;;;;46.10;43.40;;;17.00;99.90;;;;;;5072085;28;20031;-64
2021/05/02 11:43:30;;;;;;;44.20;41.53;;;17.10;99.90;;;;;;5072957;28;20079;-64
2021/05/02 11:46:01;;;;;;;46.00;43.05;;;17.00;99.90;;;;;;5071608;28;20048;-64
2021/05/02 11:48:42;;;;;;;45.45;42.55;;;17.00;99.90;;;;;;5072889;28;20024;-64
2021/05/02 11:51:27;;;;;;;44.05;41.05;;;17.00;99.90;;;;;;5072936;28;20476;-64
2021/05/02 11:53:56;;;;;;;43.78;40.97;;;17.00;99.90;;;;;;5073010;28;20024;-64
2021/05/02 11:56:32;;;;;;;44.95;42.05;;;16.90;99.90;;;;;;5072721;28;20028;-66
2021/05/02 11:59:10;;;;;;;46.85;44.13;;;16.90;99.90;;;;;;5072863;28;20081;-64
2021/05/02 12:01:41;;;;;;;45.53;42.75;;;17.00;99.90;;;;;;5071339;28;20025;-65
2021/05/02 12:04:11;;;;;;;46.47;43.58;;;16.90;99.90;;;;;;5072684;28;20065;-65
2021/05/02 12:06:39;;;;;;;44.42;41.63;;;16.90;99.90;;;;;;5072657;28;20024;-65
2021/05/02 12:09:24;;;;;;;43.17;40.38;;;16.90;99.90;;;;;;5072960;28;20381;-64
2021/05/02 12:11:59;;;;;;;45.15;42.22;;;16.90;99.90;;;;;;5071435;28;20021;-64
2021/05/02 12:14:29;;;;;;;44.33;41.53;;;16.90;99.90;;;;;;5072795;28;20032;-64
2021/05/02 12:17:00;;;;;;;45.42;42.22;;;16.90;99.90;;;;;;5072751;28;20031;-64
2021/05/02 12:19:33;;;;;;;44.25;41.63;;;16.80;99.90;;;;;;5071506;28;20041;-64
2021/05/02 12:22:01;;;;;;;43.50;40.85;;;16.90;99.90;;;;;;5073766;28;20105;-64
2021/05/02 12:24:30;;;;;;;44.45;41.55;;;16.80;99.90;;;;;;5076541;28;20022;-64
2021/05/02 12:27:03;;;;;;;44.42;41.75;;;16.90;99.90;;;;;;5076509;28;20112;-63
2021/05/02 12:29:33;;;;;;;44.58;41.63;;;16.90;99.90;;;;;;5076510;28;20017;-63
2021/05/02 12:32:24;;;;;;;44.03;41.13;;;16.90;99.90;;;;;;5076475;28;20024;-63
2021/05/02 12:34:52;;;;;;;43.38;40.58;;;16.90;99.90;;;;;;5076549;28;20031;-63
2021/05/02 12:37:24;;;;;;;44.35;41.55;;;16.80;99.90;;;;;;5076188;28;20111;-65
2021/05/02 12:39:54;;;;;;;45.20;42.42;;;16.80;99.90;;;;;;5076325;28;20536;-63
2021/05/02 12:42:40;;;;;;;44.13;41.35;;;16.80;99.90;;;;;;5075871;28;20043;-64
2021/05/02 12:45:11;;;;;;;43.58;40.70;;;16.80;99.90;;;;;;5076266;28;20428;-64
2021/05/02 12:47:49;;;;;;;45.35;42.45;;;16.80;99.90;;;;;;5074777;28;20108;-63
2021/05/02 12:50:17;;;;;;;44.65;41.83;;;16.80;99.90;;;;;;5076105;28;20103;-64
2021/05/02 12:52:46;;;;;;;45.47;42.63;;;16.70;99.90;;;;;;5076176;28;20111;-64
2021/05/02 12:55:18;;;;;;;46.40;43.42;;;16.70;99.90;;;;;;5075979;28;20099;-64
2021/05/02 12:57:50;;;;;;;46.63;43.72;;;16.70;99.90;;;;;;5075999;28;20044;-64
2021/05/02 13:00:22;;;;;;;46.97;44.28;;;16.60;99.90;;;;;;5076061;28;20496;-64
2021/05/02 13:02:49;;;;;;;46.80;43.90;;;16.60;99.90;;;;;;5074462;28;20028;-64